Time;durP1;ratioP1;P1;durP2;ratioP2;P2;SDS_P1;SDS_P2;PMS_P1;PMS_P2;Temp;Humidity;BMP_temperature;BMP_pressure;BME280_temperature;BME280_humidity;BME280_pressure;Samples;Min_cycle;Max_cycle;Signal;HPM_P1;HPM_P2
2022/06/14 00:00:56;;;;;;;5.40;1.67;;;12.80;99.90;;;;;;4963447;28;20089;-43
2022/06/14 00:03:27;;;;;;;5.85;1.38;;;12.80;99.90;;;;;;4965239;28;20050;-39
2022/06/14 00:05:54;;;;;;;6.15;1.50;;;12.70;99.90;;;;;;4973298;28;20043;-39
2022/06/14 00:08:22;;;;;;;6.90;1.70;;;12.70;99.90;;;;;;4968055;28;20465;-39
2022/06/14 00:10:49;;;;;;;5.88;2.10;;;12.60;99.90;;;;;;4963419;28;20067;-40
2022/06/14 00:13:15;;;;;;;4.35;1.50;;;12.60;99.90;;;;;;4968990;28;20045;-47
2022/06/14 00:15:41;;;;;;;5.40;1.45;;;12.50;99.90;;;;;;4969630;28;20511;-40
2022/06/14 00:18:07;;;;;;;5.18;1.80;;;12.50;99.90;;;;;;4972354;28;20043;-41
2022/06/14 00:20:33;;;;;;;6.20;1.73;;;12.50;99.90;;;;;;4970227;28;20509;-39
2022/06/14 00:22:58;;;;;;;6.78;1.75;;;12.50;99.90;;;;;;4969505;28;20046;-39
2022/06/14 00:25:36;;;;;;;4.22;1.50;;;12.50;99.90;;;;;;4968309;28;20042;-41
2022/06/14 00:28:02;;;;;;;5.53;1.50;;;12.50;99.90;;;;;;4970601;28;20101;-39
2022/06/14 00:30:29;;;;;;;5.15;1.40;;;12.40;99.90;;;;;;4967272;28;20047;-40
2022/06/14 00:32:55;;;;;;;5.30;1.80;;;12.50;99.90;;;;;;4972471;28;20039;-40
2022/06/14 00:35:21;;;;;;;5.57;2.13;;;12.40;99.90;;;;;;4969514;28;20039;-40
2022/06/14 00:37:47;;;;;;;4.05;1.50;;;12.40;99.90;;;;;;4971898;28;20492;-41
2022/06/14 00:40:16;;;;;;;5.50;1.73;;;12.40;99.90;;;;;;4970910;28;20038;-43
2022/06/14 00:42:42;;;;;;;8.43;1.63;;;12.40;99.90;;;;;;4971584;28;20512;-40
2022/06/14 00:45:34;;;;;;;7.18;2.17;;;12.30;99.90;;;;;;4973650;28;20042;-41
2022/06/14 00:48:14;;;;;;;10.50;1.60;;;12.30;99.90;;;;;;4924983;28;20074;-40
2022/06/14 00:51:01;;;;;;;4.93;1.55;;;12.20;99.90;;;;;;4974880;28;20617;-40
2022/06/14 00:53:46;;;;;;;4.65;1.90;;;12.20;99.90;;;;;;4969128;28;20066;-40
2022/06/14 00:57:06;;;;;;;5.50;1.80;;;12.20;99.90;;;;;;4965714;28;20046;-40
2022/06/14 00:59:45;;;;;;;7.07;1.80;;;12.10;99.90;;;;;;4939570;28;20558;-40
2022/06/14 01:02:21;;;;;;;9.30;1.98;;;12.10;99.90;;;;;;4947661;28;20046;-39
2022/06/14 01:04:48;;;;;;;7.72;1.67;;;12.10;99.90;;;;;;4971645;28;20046;-39
2022/06/14 01:07:29;;;;;;;5.75;1.83;;;12.00;99.90;;;;;;4970522;28;20472;-40
2022/06/14 01:10:11;;;;;;;5.38;1.45;;;12.00;99.90;;;;;;4971835;28;20792;-39
2022/06/14 01:12:45;;;;;;;5.50;1.48;;;12.00;99.90;;;;;;4971809;28;20109;-39
2022/06/14 01:15:22;;;;;;;3.80;1.52;;;12.00;99.90;;;;;;4975186;28;20071;-40
2022/06/14 01:17:58;;;;;;;6.07;1.88;;;12.00;99.90;;;;;;4970436;28;20078;-41
2022/06/14 01:20:24;;;;;;;5.05;1.60;;;11.90;99.90;;;;;;4965752;28;20452;-40
2022/06/14 01:22:51;;;;;;;5.20;1.45;;;11.90;99.90;;;;;;4974291;28;20050;-44
2022/06/14 01:25:18;;;;;;;4.88;1.90;;;11.80;99.90;;;;;;4964124;28;20087;-39
2022/06/14 01:27:44;;;;;;;6.03;1.40;;;11.80;99.90;;;;;;4965721;28;20567;-40
2022/06/14 01:30:22;;;;;;;4.15;1.90;;;11.80;99.90;;;;;;4969733;28;20042;-42
2022/06/14 01:32:56;;;;;;;4.15;1.60;;;11.70;99.90;;;;;;4972933;28;20049;-40
2022/06/14 01:35:26;;;;;;;5.65;2.00;;;11.70;99.90;;;;;;4968073;28;20039;-40
2022/06/14 01:37:54;;;;;;;3.92;1.70;;;11.60;99.90;;;;;;4970871;28;20043;-41
2022/06/14 01:40:45;;;;;;;5.80;1.67;;;11.50;99.90;;;;;;4949832;28;20431;-41
2022/06/14 01:43:28;;;;;;;6.53;1.98;;;11.50;99.90;;;;;;4967727;28;20229;-40
2022/06/14 01:46:05;;;;;;;4.82;1.75;;;11.40;99.90;;;;;;4968915;28;20502;-39
2022/06/14 01:48:45;;;;;;;5.65;1.90;;;11.20;99.90;;;;;;4967786;28;20045;-40
2022/06/14 01:54:37;;;;;;;4.40;1.50;;;10.90;99.90;;;;;;4967197;28;20578;-40
2022/06/14 01:57:27;;;;;;;3.88;1.42;;;10.90;99.90;;;;;;4964442;28;20105;-39
2022/06/14 02:00:06;;;;;;;10.07;2.47;;;10.90;99.90;;;;;;4970901;28;20385;-45
2022/06/14 02:05:58;;;;;;;5.28;1.98;;;11.00;99.90;;;;;;4965574;28;20050;-40
2022/06/14 02:08:30;;;;;;;5.18;1.70;;;11.00;99.90;;;;;;4964258;28;20047;-39
2022/06/14 02:11:03;;;;;;;;;;;11.10;99.90;;;;;;4967358;28;20047;-39
2022/06/14 02:13:46;;;;;;;6.53;2.03;;;11.10;99.90;;;;;;4969956;28;19926;-40
2022/06/14 02:16:17;;;;;;;;;;;11.10;99.90;;;;;;4973846;28;20396;-39
2022/06/14 02:19:15;;;;;;;5.07;1.58;;;11.10;99.90;;;;;;4957851;28;20367;-39
2022/06/14 02:21:46;;;;;;;7.22;2.28;;;11.10;99.90;;;;;;4955138;28;20059;-39
2022/06/14 02:24:20;;;;;;;6.30;2.05;;;11.10;99.90;;;;;;4951804;28;20042;-42
2022/06/14 02:26:55;;;;;;;6.78;1.70;;;11.20;99.90;;;;;;4970497;28;20085;-40
2022/06/14 02:29:37;;;;;;;5.78;1.80;;;11.10;99.90;;;;;;4974354;28;20129;-40
2022/06/14 02:32:11;;;;;;;2.90;1.33;;;11.10;99.90;;;;;;4972300;28;20137;-43
2022/06/14 02:34:42;;;;;;;7.68;1.65;;;11.20;99.90;;;;;;4969696;28;20070;-39
2022/06/14 02:37:28;;;;;;;4.78;1.50;;;11.20;99.90;;;;;;4965358;28;20118;-41
2022/06/14 02:39:58;;;;;;;6.00;1.65;;;11.20;99.90;;;;;;4966758;28;20587;-41
2022/06/14 02:42:47;;;;;;;5.95;1.58;;;11.20;99.90;;;;;;4971491;28;20125;-42
2022/06/14 02:45:23;;;;;;;5.78;1.85;;;11.20;99.90;;;;;;4966764;28;20046;-41
2022/06/14 02:48:12;;;;;;;7.72;1.83;;;11.20;99.90;;;;;;4966912;28;20047;-42
2022/06/14 02:51:10;;;;;;;5.18;1.60;;;11.10;99.90;;;;;;4968120;28;20051;-40
2022/06/14 02:53:50;;;;;;;4.10;1.60;;;11.00;99.90;;;;;;4917658;28;20038;-41
2022/06/14 02:56:21;;;;;;;4.03;1.75;;;11.00;99.90;;;;;;4964732;28;20412;-40
2022/06/14 02:59:15;;;;;;;5.82;1.52;;;11.00;99.90;;;;;;4965767;28;20492;-44
2022/06/14 03:01:51;;;;;;;4.82;1.63;;;11.00;99.90;;;;;;4948397;28;20468;-40
2022/06/14 03:04:24;;;;;;;3.60;1.75;;;11.00;99.90;;;;;;4967159;28;20053;-42
2022/06/14 03:07:15;;;;;;;7.03;1.95;;;10.90;99.90;;;;;;4967358;28;20493;-39
2022/06/14 03:09:42;;;;;;;5.68;2.00;;;10.90;99.90;;;;;;4967314;28;20097;-39
2022/06/14 03:12:23;;;;;;;8.55;2.35;;;10.90;99.90;;;;;;4964135;28;20134;-39
2022/06/14 03:15:11;;;;;;;6.25;1.98;;;10.80;99.90;;;;;;4967609;28;20058;-42
2022/06/14 03:18:03;;;;;;;6.97;1.70;;;10.80;99.90;;;;;;4965707;28;20043;-39
2022/06/14 03:20:47;;;;;;;;;;;10.80;99.90;;;;;;4967019;28;20502;-40
2022/06/14 03:23:24;;;;;;;6.47;2.20;;;10.80;99.90;;;;;;4965555;28;20025;-40
2022/06/14 03:26:01;;;;;;;5.07;1.52;;;10.80;99.90;;;;;;4967676;28;20046;-40
2022/06/14 03:28:57;;;;;;;8.15;2.15;;;10.80;99.90;;;;;;4968478;28;20042;-39
2022/06/14 03:31:45;;;;;;;8.23;2.10;;;10.80;99.90;;;;;;4968798;28;20536;-39
2022/06/14 03:34:17;;;;;;;9.05;2.13;;;10.80;99.90;;;;;;4965410;28;20042;-38
2022/06/14 03:36:43;;;;;;;4.45;1.92;;;10.90;99.90;;;;;;4968877;28;20045;-39
2022/06/14 03:39:14;;;;;;;7.03;2.55;;;10.80;99.90;;;;;;4962895;28;20050;-41
2022/06/14 03:41:47;;;;;;;6.03;1.52;;;10.80;99.90;;;;;;4964151;28;20519;-39
2022/06/14 03:44:15;;;;;;;8.25;2.95;;;10.70;99.90;;;;;;4974473;28;20057;-40
2022/06/14 03:46:46;;;;;;;7.13;2.00;;;10.70;99.90;;;;;;4963788;28;20042;-39
2022/06/14 03:49:17;;;;;;;7.90;2.10;;;10.60;99.90;;;;;;4966225;28;20030;-42
2022/06/14 03:52:07;;;;;;;6.13;1.83;;;10.70;99.90;;;;;;4967296;28;20046;-39
2022/06/14 03:54:56;;;;;;;7.68;2.10;;;10.60;99.90;;;;;;4969233;28;20063;-44
2022/06/14 03:58:07;;;;;;;6.55;1.50;;;10.60;99.90;;;;;;4967468;28;20065;-40
2022/06/14 04:00:53;;;;;;;4.10;1.40;;;10.60;99.90;;;;;;4965230;28;20074;-40
2022/06/14 04:03:39;;;;;;;4.50;1.48;;;10.60;99.90;;;;;;4969191;28;20047;-39
2022/06/14 04:06:16;;;;;;;6.35;2.15;;;10.70;99.90;;;;;;4968769;28;20046;-40
2022/06/14 04:09:15;;;;;;;6.43;1.63;;;10.70;99.90;;;;;;4945728;28;20046;-39
2022/06/14 04:11:40;;;;;;;5.78;1.67;;;10.60;99.90;;;;;;4963173;28;20047;-39
2022/06/14 04:14:37;;;;;;;3.70;1.55;;;10.60;99.90;;;;;;4967371;28;20051;-39
2022/06/14 04:17:41;;;;;;;4.85;1.48;;;10.60;99.90;;;;;;4967745;28;20567;-40
2022/06/14 04:20:21;;;;;;;3.92;1.60;;;10.70;99.90;;;;;;4947296;28;20052;-40
2022/06/14 04:23:02;;;;;;;8.18;1.73;;;10.70;99.90;;;;;;4974620;28;20074;-39
2022/06/14 04:25:46;;;;;;;5.10;1.65;;;10.70;99.90;;;;;;4970786;28;20396;-40
2022/06/14 04:28:41;;;;;;;5.72;1.50;;;10.80;99.90;;;;;;4967536;28;20042;-39
2022/06/14 04:31:11;;;;;;;3.42;1.00;;;10.80;99.90;;;;;;4966434;28;20085;-39
2022/06/14 04:33:48;;;;;;;3.25;1.20;;;10.80;99.90;;;;;;4972255;28;20114;-40
2022/06/14 04:36:54;;;;;;;9.45;1.90;;;10.90;99.90;;;;;;4966230;28;20855;-39
2022/06/14 04:39:30;;;;;;;4.35;1.10;;;11.00;99.90;;;;;;4891478;29;20120;-40
2022/06/14 04:42:12;;;;;;;4.07;1.35;;;11.00;99.90;;;;;;4961890;28;20584;-41
2022/06/14 04:45:09;;;;;;;6.40;1.40;;;11.00;99.90;;;;;;4972910;28;20030;-39
2022/06/14 04:47:57;;;;;;;4.18;1.30;;;11.10;99.90;;;;;;4977381;28;20491;-41
2022/06/14 04:50:28;;;;;;;3.92;1.45;;;11.10;99.90;;;;;;4975158;28;20351;-39
2022/06/14 04:53:01;;;;;;;8.90;2.33;;;11.10;99.90;;;;;;4975829;28;20044;-41
2022/06/14 04:55:37;;;;;;;4.90;1.50;;;11.10;99.90;;;;;;4970399;28;20164;-39
2022/06/14 04:58:23;;;;;;;6.80;1.83;;;11.10;99.90;;;;;;4968785;28;20039;-39
2022/06/14 05:01:07;;;;;;;7.47;1.70;;;11.10;99.90;;;;;;4969107;28;20823;-39
2022/06/14 05:03:47;;;;;;;8.45;1.70;;;11.10;99.90;;;;;;4954404;28;20068;-38
2022/06/14 05:06:38;;;;;;;8.60;1.70;;;11.20;99.90;;;;;;4970493;28;20480;-38
2022/06/14 05:09:11;;;;;;;4.32;1.73;;;11.30;99.90;;;;;;4966582;28;20089;-40
2022/06/14 05:11:50;;;;;;;5.05;1.30;;;11.40;99.90;;;;;;4952526;28;20141;-39
2022/06/14 05:14:19;;;;;;;4.82;1.38;;;11.50;99.90;;;;;;4970841;28;20074;-39
2022/06/14 05:17:03;;;;;;;8.35;1.90;;;11.50;99.90;;;;;;4969690;28;20097;-41
2022/06/14 05:19:51;;;;;;;5.25;1.35;;;11.70;99.90;;;;;;4966779;28;20047;-38
2022/06/14 05:22:21;;;;;;;6.80;2.53;;;11.80;99.90;;;;;;4968625;28;20057;-39
2022/06/14 05:24:48;;;;;;;8.60;1.85;;;11.80;99.90;;;;;;4968943;28;20098;-39
2022/06/14 05:27:35;;;;;;;5.00;1.38;;;11.90;99.90;;;;;;4973649;28;20046;-40
2022/06/14 05:30:30;;;;;;;4.55;1.40;;;11.90;99.90;;;;;;4967607;28;20811;-40
2022/06/14 05:33:38;;;;;;;6.15;1.63;;;12.00;99.90;;;;;;4966201;28;20039;-39
2022/06/14 05:36:18;;;;;;;5.38;1.52;;;12.10;99.90;;;;;;4973064;28;20047;-40
2022/06/14 05:39:08;;;;;;;7.82;1.98;;;12.20;99.90;;;;;;4966578;28;20190;-40
2022/06/14 05:41:45;;;;;;;5.07;1.48;;;12.30;99.90;;;;;;4967882;28;20034;-41
2022/06/14 05:44:32;;;;;;;8.95;1.67;;;12.40;99.90;;;;;;4960711;28;20130;-41
2022/06/14 05:47:22;;;;;;;7.18;2.05;;;12.40;99.90;;;;;;4967261;28;20086;-39
2022/06/14 05:49:54;;;;;;;3.90;1.45;;;12.50;99.90;;;;;;4965429;28;20054;-40
2022/06/14 05:52:27;;;;;;;;;;;12.60;99.90;;;;;;4964111;28;20086;-41
2022/06/14 05:55:07;;;;;;;;;;;12.70;99.90;;;;;;4949042;28;19918;-41
2022/06/14 05:57:49;;;;;;;8.90;2.72;;;12.80;99.90;;;;;;4954425;28;20335;-40
2022/06/14 06:00:21;;;;;;;6.43;1.85;;;12.90;99.90;;;;;;4963224;28;20046;-42
2022/06/14 06:03:05;;;;;;;6.22;1.23;;;13.00;99.90;;;;;;4966265;28;20049;-41
2022/06/14 06:05:47;;;;;;;5.47;1.58;;;13.10;99.90;;;;;;4960044;28;20038;-40
2022/06/14 06:08:23;;;;;;;7.03;1.90;;;13.20;99.90;;;;;;4949677;28;20035;-40
2022/06/14 06:10:53;;;;;;;5.63;1.60;;;13.30;99.90;;;;;;4969124;28;20122;-39
2022/06/14 06:13:29;;;;;;;6.32;1.55;;;13.40;99.90;;;;;;4965302;28;20109;-40
2022/06/14 06:16:03;;;;;;;11.80;2.47;;;13.50;99.90;;;;;;4949409;28;20043;-43
2022/06/14 06:18:38;;;;;;;7.65;1.98;;;13.60;99.90;;;;;;4965973;28;20083;-42
2022/06/14 06:21:33;;;;;;;9.38;1.50;;;13.60;99.90;;;;;;4962836;28;20049;-41
2022/06/14 06:24:13;;;;;;;6.00;1.52;;;13.70;99.90;;;;;;4974312;28;20487;-39
2022/06/14 06:26:41;;;;;;;6.28;1.70;;;13.90;99.90;;;;;;4961583;28;20049;-39
2022/06/14 06:29:20;;;;;;;7.18;1.60;;;13.90;99.90;;;;;;4967274;28;20027;-40
2022/06/14 06:31:47;;;;;;;6.60;1.67;;;14.00;99.90;;;;;;4965529;28;20430;-41
2022/06/14 06:34:15;;;;;;;7.70;1.60;;;14.10;99.90;;;;;;4981415;28;20070;-40
2022/06/14 06:36:55;;;;;;;8.00;1.73;;;14.20;99.90;;;;;;4973976;28;20051;-42
2022/06/14 06:39:21;;;;;;;4.05;1.52;;;14.40;99.90;;;;;;4966729;28;20133;-40
2022/06/14 06:41:55;;;;;;;11.35;1.95;;;14.40;99.90;;;;;;4962336;28;20584;-40
2022/06/14 06:44:38;;;;;;;6.97;1.90;;;14.50;99.90;;;;;;4974261;28;20129;-40
2022/06/14 06:47:14;;;;;;;7.85;2.05;;;14.60;99.90;;;;;;4965490;28;20039;-40
2022/06/14 06:49:59;;;;;;;5.45;1.88;;;14.70;99.90;;;;;;4966313;28;20150;-42
2022/06/14 06:52:41;;;;;;;6.65;1.65;;;14.80;99.90;;;;;;4962563;28;20552;-40
2022/06/14 06:55:13;;;;;;;6.75;2.08;;;15.00;99.90;;;;;;4968138;28;20043;-40
2022/06/14 06:57:42;;;;;;;4.90;1.35;;;15.10;99.90;;;;;;4951313;28;20102;-40
2022/06/14 07:00:12;;;;;;;5.57;1.80;;;15.20;99.90;;;;;;4965053;28;20031;-40
2022/06/14 07:03:09;;;;;;;5.85;1.52;;;15.40;99.90;;;;;;4967095;28;20039;-41
2022/06/14 07:05:35;;;;;;;6.45;1.60;;;15.70;99.90;;;;;;4964646;28;20055;-44
2022/06/14 07:08:07;;;;;;;7.05;1.88;;;15.90;99.90;;;;;;4974055;28;20065;-41
2022/06/14 07:10:38;;;;;;;3.22;1.00;;;16.00;99.90;;;;;;4972588;28;20141;-41
2022/06/14 07:13:07;;;;;;;11.73;2.07;;;16.10;99.90;;;;;;4959333;28;20066;-42
2022/06/14 07:16:09;;;;;;;7.20;0.90;;;16.00;99.90;;;;;;4945970;28;20050;-40
2022/06/14 07:18:53;;;;;;;3.83;0.70;;;15.90;99.90;;;;;;4943566;28;20062;-40
2022/06/14 07:21:23;;;;;;;5.88;1.00;;;15.70;99.90;;;;;;4959422;28;20058;-41
2022/06/14 07:23:55;;;;;;;3.30;0.63;;;15.60;99.90;;;;;;4964114;28;20046;-41
2022/06/14 07:26:30;;;;;;;4.05;0.95;;;15.60;99.90;;;;;;4968868;28;20058;-41
2022/06/14 07:29:03;;;;;;;3.92;0.80;;;15.60;99.90;;;;;;4968133;28;20054;-42
2022/06/14 07:31:32;;;;;;;3.25;0.80;;;15.60;99.90;;;;;;4967077;28;20053;-41
2022/06/14 07:34:00;;;;;;;4.07;0.70;;;15.60;99.70;;;;;;4969602;28;20113;-39
2022/06/14 07:36:58;;;;;;;2.53;0.50;;;15.60;99.70;;;;;;4969087;28;20113;-41
2022/06/14 07:39:26;;;;;;;8.68;0.95;;;15.70;99.30;;;;;;4957988;28;20134;-40
2022/06/14 07:42:04;;;;;;;3.13;0.73;;;15.80;99.10;;;;;;4955095;28;20052;-40
2022/06/14 07:44:55;;;;;;;5.13;0.75;;;15.80;98.50;;;;;;4976136;28;20353;-40
2022/06/14 07:47:40;;;;;;;3.55;0.70;;;16.00;98.00;;;;;;4965715;28;20039;-41
2022/06/14 07:50:27;;;;;;;4.88;1.27;;;16.30;97.30;;;;;;4963487;28;20085;-44
2022/06/14 07:53:00;;;;;;;4.53;0.80;;;16.70;97.80;;;;;;4943149;28;20057;-43
2022/06/14 07:55:34;;;;;;;3.72;0.70;;;17.00;96.30;;;;;;4969348;28;20038;-43
2022/06/14 07:58:07;;;;;;;3.30;0.57;;;17.20;96.00;;;;;;4968222;28;20046;-40
2022/06/14 08:03:30;;;;;;;4.72;0.80;;;16.90;94.40;;;;;;4966376;28;20047;-42
2022/06/14 08:05:58;;;;;;;4.72;0.80;;;16.60;94.30;;;;;;4973603;28;20490;-41
2022/06/14 08:08:28;;;;;;;3.25;0.77;;;16.50;94.70;;;;;;4972312;28;20073;-40
2022/06/14 08:11:00;;;;;;;4.35;0.88;;;16.40;95.00;;;;;;4972687;28;20102;-40
2022/06/14 08:13:33;;;;;;;4.40;0.75;;;16.60;94.20;;;;;;4951339;28;20527;-41
2022/06/14 08:16:01;;;;;;;3.15;0.75;;;16.80;93.30;;;;;;4951864;28;20043;-43
2022/06/14 08:18:36;;;;;;;3.20;0.55;;;17.00;92.60;;;;;;4966967;28;20427;-41
2022/06/14 08:21:27;;;;;;;3.03;0.85;;;17.30;92.20;;;;;;4977581;28;20168;-40
2022/06/14 08:23:58;;;;;;;3.00;0.60;;;17.50;90.60;;;;;;4969696;28;20141;-42
2022/06/14 08:26:30;;;;;;;5.35;1.38;;;17.60;90.50;;;;;;4967563;28;20046;-40
2022/06/14 08:29:03;;;;;;;2.73;0.60;;;17.60;88.00;;;;;;4971909;28;20045;-41
2022/06/14 08:31:58;;;;;;;4.40;0.88;;;17.40;87.00;;;;;;4973584;28;20408;-42
2022/06/14 08:34:33;;;;;;;2.15;0.82;;;17.40;88.80;;;;;;4958237;28;20056;-42
2022/06/14 08:37:23;;;;;;;3.58;0.60;;;17.50;89.20;;;;;;4967891;28;20146;-46
2022/06/14 08:39:58;;;;;;;4.00;0.77;;;17.60;85.30;;;;;;4960502;28;20075;-41
2022/06/14 08:42:28;;;;;;;3.92;0.73;;;17.70;83.00;;;;;;4968356;28;20174;-42
2022/06/14 08:44:58;;;;;;;4.00;0.60;;;17.70;84.40;;;;;;4968908;28;20046;-40
2022/06/14 08:47:54;;;;;;;2.88;0.60;;;17.60;82.60;;;;;;4971587;28;20126;-41
2022/06/14 08:50:34;;;;;;;2.85;0.75;;;17.60;82.80;;;;;;4968732;28;20103;-40
2022/06/14 08:53:36;;;;;;;1.95;0.55;;;17.80;81.30;;;;;;4971217;28;20136;-42
2022/06/14 08:56:26;;;;;;;2.90;0.60;;;18.10;76.00;;;;;;4947697;28;20057;-41
2022/06/14 08:59:22;;;;;;;2.75;0.45;;;18.40;74.60;;;;;;4966141;28;20100;-43
2022/06/14 09:02:06;;;;;;;3.33;0.90;;;18.60;77.40;;;;;;4970228;28;20436;-43
2022/06/14 09:04:56;;;;;;;5.47;0.85;;;18.80;74.90;;;;;;4965249;28;20046;-41
2022/06/14 09:07:52;;;;;;;2.95;0.70;;;18.80;72.40;;;;;;4965747;28;20054;-42
2022/06/14 09:10:52;;;;;;;2.17;0.57;;;18.60;72.70;;;;;;4974549;28;20065;-43
2022/06/14 09:13:33;;;;;;;3.03;0.57;;;18.50;76.30;;;;;;4968624;28;20039;-43
2022/06/14 09:16:33;;;;;;;1.83;0.65;;;18.20;73.10;;;;;;4968410;28;20051;-40
2022/06/14 09:19:41;;;;;;;2.53;0.45;;;18.10;77.70;;;;;;4970933;28;20046;-41
2022/06/14 09:22:50;;;;;;;1.95;0.50;;;18.00;79.50;;;;;;4928797;29;20441;-43
2022/06/14 09:25:43;;;;;;;2.17;0.50;;;17.80;70.50;;;;;;4928358;29;20043;-41
2022/06/14 09:28:26;;;;;;;3.67;0.63;;;17.80;77.70;;;;;;4972569;28;20046;-42
2022/06/14 09:31:16;;;;;;;3.05;0.60;;;17.80;79.00;;;;;;4968935;28;20094;-42
2022/06/14 09:34:03;;;;;;;2.58;0.77;;;17.60;77.90;;;;;;4971803;28;20042;-42
2022/06/14 09:37:03;;;;;;;2.00;0.60;;;17.50;76.90;;;;;;4964188;28;20039;-40
2022/06/14 09:39:57;;;;;;;4.22;0.60;;;17.50;77.90;;;;;;4968858;28;20093;-41
2022/06/14 09:42:47;;;;;;;7.10;0.63;;;17.60;77.10;;;;;;4967687;28;20046;-39
2022/06/14 09:45:25;;;;;;;1.77;0.45;;;17.60;76.60;;;;;;4970334;28;20046;-38
2022/06/14 09:48:22;;;;;;;4.97;0.65;;;17.70;77.90;;;;;;4966934;28;20519;-42
2022/06/14 09:50:56;;;;;;;3.60;0.57;;;18.00;77.90;;;;;;4966518;28;20573;-40
2022/06/14 09:53:43;;;;;;;4.25;0.47;;;18.30;76.40;;;;;;4969810;28;20070;-40
2022/06/14 09:56:38;;;;;;;2.90;0.50;;;18.60;75.50;;;;;;4980700;28;20045;-39
2022/06/14 09:59:35;;;;;;;2.70;0.60;;;19.00;70.70;;;;;;4972169;28;20069;-40
2022/06/14 10:02:07;;;;;;;1.60;0.40;;;19.20;69.30;;;;;;4969630;28;20085;-39
2022/06/14 10:04:38;;;;;;;3.17;0.57;;;19.20;71.40;;;;;;4972820;28;20043;-42
2022/06/14 10:07:15;;;;;;;5.47;0.68;;;19.20;71.20;;;;;;4969158;28;20160;-40
2022/06/14 10:09:43;;;;;;;1.88;0.70;;;19.00;72.90;;;;;;4969304;28;20534;-39
2022/06/14 10:12:27;;;;;;;1.80;0.60;;;18.90;71.30;;;;;;4971120;28;20117;-39
2022/06/14 10:15:10;;;;;;;2.05;0.52;;;19.00;71.80;;;;;;4971429;28;20106;-46
2022/06/14 10:17:59;;;;;;;2.47;0.65;;;19.00;70.60;;;;;;4976048;28;20441;-40
2022/06/14 10:20:37;;;;;;;2.65;0.45;;;19.10;69.90;;;;;;4967373;28;20042;-39
2022/06/14 10:23:20;;;;;;;2.05;0.50;;;19.40;69.30;;;;;;4964814;28;20089;-41
2022/06/14 10:29:13;;;;;;;3.20;0.80;;;20.00;63.50;;;;;;4970391;28;20139;-40
2022/06/14 10:32:13;;;;;;;1.55;0.52;;;20.50;63.70;;;;;;4968633;28;20045;-42
2022/06/14 10:34:51;;;;;;;2.20;0.63;;;20.80;60.10;;;;;;4967535;28;20393;-39
2022/06/14 10:37:31;;;;;;;1.95;0.60;;;21.10;60.60;;;;;;4965744;28;20117;-38
2022/06/14 10:40:11;;;;;;;1.58;0.60;;;21.30;57.90;;;;;;4960856;28;20049;-41
2022/06/14 10:42:55;;;;;;;2.55;0.57;;;21.50;56.30;;;;;;4967525;28;20046;-44
2022/06/14 10:45:32;;;;;;;1.45;0.40;;;21.60;55.70;;;;;;4970300;28;20583;-40
2022/06/14 10:48:29;;;;;;;1.38;0.40;;;21.50;54.10;;;;;;4968943;28;20602;-40
2022/06/14 10:51:18;;;;;;;1.17;0.50;;;21.20;52.90;;;;;;4966473;28;20046;-42
2022/06/14 10:54:11;;;;;;;1.75;0.40;;;20.70;55.40;;;;;;4968671;28;20043;-39
2022/06/14 10:56:51;;;;;;;2.65;0.68;;;20.40;55.80;;;;;;4958674;28;20078;-39
2022/06/14 10:59:44;;;;;;;1.60;0.50;;;20.10;59.00;;;;;;4976989;28;20168;-46
2022/06/14 11:02:37;;;;;;;3.20;0.65;;;20.10;56.50;;;;;;4965829;28;20126;-39
2022/06/14 11:05:21;;;;;;;3.17;0.70;;;20.30;57.10;;;;;;4964536;28;20047;-40
2022/06/14 11:08:00;;;;;;;1.25;0.40;;;20.50;56.20;;;;;;4963597;28;20123;-39
2022/06/14 11:10:48;;;;;;;1.73;0.40;;;20.60;53.60;;;;;;4970540;28;20100;-39
2022/06/14 11:13:38;;;;;;;1.63;0.50;;;20.90;54.50;;;;;;4963434;28;20167;-42
2022/06/14 11:16:32;;;;;;;1.13;0.40;;;21.20;54.60;;;;;;4968134;28;20062;-44
2022/06/14 11:19:16;;;;;;;2.55;0.40;;;21.20;52.60;;;;;;4970476;28;20039;-41
2022/06/14 11:21:51;;;;;;;2.33;0.47;;;21.40;55.40;;;;;;4970046;28;20101;-41
2022/06/14 11:24:28;;;;;;;3.45;0.60;;;21.30;53.40;;;;;;4967822;28;20508;-40
2022/06/14 11:27:03;;;;;;;1.75;0.40;;;21.30;54.10;;;;;;4971212;28;20049;-40
2022/06/14 11:29:32;;;;;;;3.40;0.43;;;21.00;55.80;;;;;;4969547;28;20097;-40
2022/06/14 11:32:13;;;;;;;1.85;0.50;;;20.80;57.30;;;;;;4973441;28;20034;-42
2022/06/14 11:34:44;;;;;;;3.83;0.57;;;20.50;55.60;;;;;;4972440;28;20043;-42
2022/06/14 11:37:19;;;;;;;6.47;0.87;;;20.60;56.90;;;;;;4965226;28;20504;-41
2022/06/14 11:39:57;;;;;;;2.85;0.77;;;20.80;56.20;;;;;;4968149;28;20051;-40
2022/06/14 11:42:34;;;;;;;2.80;0.60;;;21.00;54.80;;;;;;4969900;28;20097;-42
2022/06/14 11:45:12;;;;;;;2.55;0.98;;;21.30;54.20;;;;;;4967072;28;20043;-41
2022/06/14 11:47:59;;;;;;;3.08;0.93;;;21.40;52.60;;;;;;4970793;28;20544;-42
2022/06/14 11:50:59;;;;;;;3.03;0.63;;;21.60;52.40;;;;;;4973515;28;20101;-40
2022/06/14 11:53:57;;;;;;;5.18;0.82;;;21.90;51.10;;;;;;4975589;28;20043;-41
2022/06/14 11:56:47;;;;;;;2.63;0.50;;;22.00;50.30;;;;;;4971993;28;20046;-40
2022/06/14 11:59:31;;;;;;;1.63;0.60;;;22.20;50.40;;;;;;4968639;28;20055;-42
2022/06/14 12:02:15;;;;;;;3.45;0.60;;;22.60;48.90;;;;;;4969032;28;20050;-43
2022/06/14 12:05:07;;;;;;;3.72;0.60;;;22.90;48.90;;;;;;4980544;28;20491;-40
2022/06/14 12:07:40;;;;;;;2.40;0.50;;;23.10;47.20;;;;;;4971577;28;20050;-41
2022/06/14 12:10:08;;;;;;;;;;;23.40;48.00;;;;;;4969926;28;20035;-38
2022/06/14 12:12:57;;;;;;;2.50;0.63;;;23.70;46.70;;;;;;4971447;28;19969;-39
2022/06/14 12:15:49;;;;;;;4.05;0.80;;;23.90;45.50;;;;;;4952371;28;20564;-40
2022/06/14 12:18:18;;;;;;;1.92;0.90;;;23.70;46.30;;;;;;4954294;28;20091;-39
2022/06/14 12:21:18;;;;;;;4.20;1.00;;;23.60;46.50;;;;;;4951482;28;20136;-39
2022/06/14 12:23:48;;;;;;;1.70;0.40;;;23.40;45.00;;;;;;4926283;28;20106;-39
2022/06/14 12:26:35;;;;;;;2.10;0.80;;;23.20;47.20;;;;;;4951281;28;20047;-40
2022/06/14 12:29:12;;;;;;;3.53;0.70;;;22.90;47.50;;;;;;4950128;29;20162;-41
2022/06/14 12:32:03;;;;;;;2.60;0.75;;;22.50;47.20;;;;;;4950840;28;20094;-40
2022/06/14 12:34:42;;;;;;;3.63;0.73;;;22.10;47.80;;;;;;4949848;28;20624;-39
2022/06/14 12:37:40;;;;;;;2.50;0.70;;;22.20;49.00;;;;;;4953370;28;20101;-42
2022/06/14 12:40:15;;;;;;;3.35;0.75;;;22.30;48.60;;;;;;4948559;28;20123;-40
2022/06/14 12:42:49;;;;;;;2.03;0.55;;;22.30;48.80;;;;;;4952025;28;20438;-40
2022/06/14 12:45:20;;;;;;;2.45;0.70;;;22.10;49.00;;;;;;4958285;28;20039;-39
2022/06/14 12:48:13;;;;;;;4.80;0.67;;;22.10;48.90;;;;;;4953240;28;20039;-39
2022/06/14 12:50:46;;;;;;;1.88;0.50;;;22.40;49.40;;;;;;4954370;28;20051;-39
2022/06/14 12:53:34;;;;;;;1.45;0.60;;;22.40;49.40;;;;;;4947203;28;20039;-38
2022/06/14 12:56:17;;;;;;;2.50;0.68;;;22.20;49.20;;;;;;4951447;28;20039;-39
2022/06/14 12:58:42;;;;;;;;;;;22.00;49.60;;;;;;4953330;28;20038;-38
2022/06/14 13:01:19;;;;;;;1.77;0.60;;;21.80;49.00;;;;;;4947944;28;20359;-42
2022/06/14 13:04:25;;;;;;;1.45;0.50;;;21.70;49.60;;;;;;4946944;28;20089;-39
2022/06/14 13:07:03;;;;;;;1.92;0.70;;;21.80;49.00;;;;;;4933195;28;20055;-39
2022/06/14 13:09:53;;;;;;;2.38;0.65;;;22.30;48.10;;;;;;4949789;28;20051;-39
2022/06/14 13:12:19;;;;;;;2.65;0.70;;;23.00;48.00;;;;;;4954459;28;20054;-40
2022/06/14 13:15:11;;;;;;;1.85;0.57;;;23.30;46.80;;;;;;4956958;28;20550;-39
2022/06/14 13:18:00;;;;;;;4.63;0.80;;;23.80;45.50;;;;;;4947184;28;20436;-38
2022/06/14 13:20:28;;;;;;;3.05;0.50;;;23.80;44.20;;;;;;4969642;28;20334;-39
2022/06/14 13:23:31;;;;;;;2.80;0.60;;;24.00;44.50;;;;;;4966771;28;20475;-41
2022/06/14 13:26:15;;;;;;;;;;;24.40;44.30;;;;;;4970669;28;20499;-40
2022/06/14 13:28:53;;;;;;;4.43;0.60;;;24.60;41.90;;;;;;4966286;28;19922;-40
2022/06/14 13:32:12;;;;;;;2.70;0.50;;;24.70;43.80;;;;;;4969194;28;20054;-41
2022/06/14 13:34:48;;;;;;;2.90;0.88;;;24.40;44.40;;;;;;4890490;29;20521;-41
2022/06/14 13:37:26;;;;;;;2.85;0.60;;;23.80;43.60;;;;;;4886724;29;20451;-41
2022/06/14 13:40:05;;;;;;;3.17;0.80;;;23.70;44.60;;;;;;4937702;28;20492;-41
2022/06/14 13:42:39;;;;;;;1.17;0.50;;;23.40;43.20;;;;;;4963474;28;20042;-40
2022/06/14 13:45:17;;;;;;;1.95;0.60;;;23.30;44.30;;;;;;4969119;28;20071;-40
2022/06/14 13:48:14;;;;;;;1.75;0.50;;;23.60;45.20;;;;;;4964240;28;20078;-40
2022/06/14 13:50:51;;;;;;;1.95;0.60;;;24.10;43.40;;;;;;4893550;28;20491;-41
2022/06/14 13:53:25;;;;;;;2.13;0.70;;;24.80;42.50;;;;;;4967660;28;20027;-42
2022/06/14 13:56:07;;;;;;;1.63;0.70;;;25.20;41.50;;;;;;4967345;28;20054;-42
2022/06/14 13:58:47;;;;;;;3.85;0.50;;;25.60;40.10;;;;;;4965548;28;20054;-45
2022/06/14 14:01:21;;;;;;;1.92;0.80;;;25.80;40.40;;;;;;4966704;28;20054;-44
2022/06/14 14:03:51;;;;;;;2.53;0.90;;;25.90;40.10;;;;;;4960251;28;20042;-40
2022/06/14 14:06:40;;;;;;;3.42;0.60;;;25.90;39.40;;;;;;4964567;28;20043;-40
2022/06/14 14:09:29;;;;;;;1.67;0.90;;;25.70;38.90;;;;;;4963618;28;20049;-40